Time;durP1;ratioP1;P1;durP2;ratioP2;P2;SDS_P1;SDS_P2;PMS_P1;PMS_P2;Temp;Humidity;BMP_temperature;BMP_pressure;BME280_temperature;BME280_humidity;BME280_pressure;Samples;Min_cycle;Max_cycle;Signal;HPM_P1;HPM_P2
2023/06/06 00:00:41;;;;;;;13.10;6.07;;;11.30;99.90;;;;;;5034994;28;20041;-69
2023/06/06 00:03:07;;;;;;;9.07;6.03;;;;;;;;;;5034851;28;20068;-69
2023/06/06 00:05:33;;;;;;;16.27;6.53;;;11.30;99.90;;;;;;5034198;28;20128;-69
2023/06/06 00:07:59;;;;;;;16.75;7.05;;;11.40;99.90;;;;;;5034646;28;20053;-69
2023/06/06 00:10:25;;;;;;;12.68;6.10;;;11.30;99.90;;;;;;5034671;28;20044;-69
2023/06/06 00:12:52;;;;;;;10.70;6.68;;;11.40;99.90;;;;;;5052686;28;20439;-69
2023/06/06 00:15:19;;;;;;;9.82;5.75;;;11.30;99.90;;;;;;5034312;28;20044;-69
2023/06/06 00:17:45;;;;;;;8.88;5.63;;;11.40;99.90;;;;;;5018014;28;20040;-69
2023/06/06 00:20:13;;;;;;;14.45;6.68;;;11.30;99.90;;;;;;5034613;28;20041;-69
2023/06/06 00:22:40;;;;;;;12.90;6.50;;;;;;;;;;5052328;28;20033;-69
2023/06/06 00:25:06;;;;;;;13.93;7.05;;;11.40;99.90;;;;;;5034009;28;20416;-69
2023/06/06 00:27:36;;;;;;;16.67;6.50;;;11.10;99.90;;;;;;5034428;28;20037;-68
2023/06/06 00:30:03;;;;;;;10.52;6.65;;;11.50;99.90;;;;;;5052298;28;20393;-69
2023/06/06 00:32:28;;;;;;;11.80;6.55;;;;;;;;;;5052223;28;20069;-69
2023/06/06 00:34:55;;;;;;;11.07;5.88;;;;;;;;;;5033856;28;20118;-69
2023/06/06 00:37:21;;;;;;;15.32;6.80;;;11.20;99.90;;;;;;5034096;28;20057;-69
2023/06/06 00:39:46;;;;;;;12.50;7.03;;;11.10;99.90;;;;;;5034280;28;20055;-69
2023/06/06 00:42:12;;;;;;;14.45;7.13;;;11.30;99.90;;;;;;5034229;28;20408;-69
2023/06/06 00:44:37;;;;;;;11.65;6.97;;;11.20;99.90;;;;;;5032923;28;20041;-69
2023/06/06 00:47:03;;;;;;;15.70;8.23;;;11.30;99.90;;;;;;5017762;28;20079;-68
2023/06/06 00:49:29;;;;;;;13.13;6.90;;;;;;;;;;5034257;28;20076;-69
2023/06/06 00:51:55;;;;;;;11.00;7.18;;;;;;;;;;5033702;28;20397;-68
2023/06/06 00:54:22;;;;;;;13.13;7.47;;;;;;;;;;5033419;28;20041;-69
2023/06/06 00:56:50;;;;;;;15.35;6.95;;;11.10;99.90;;;;;;5033883;28;20044;-69
2023/06/06 00:59:16;;;;;;;10.82;6.45;;;11.00;99.90;;;;;;5033793;28;20056;-69
2023/06/06 01:01:43;;;;;;;14.82;7.50;;;11.10;99.90;;;;;;5033857;28;20048;-69
2023/06/06 01:04:10;;;;;;;14.15;7.05;;;10.90;99.90;;;;;;5033185;28;20129;-68
2023/06/06 01:06:37;;;;;;;17.48;7.25;;;11.00;99.90;;;;;;5033975;28;20029;-69
2023/06/06 01:09:07;;;;;;;12.82;7.05;;;11.10;99.90;;;;;;5033444;28;20045;-69
2023/06/06 01:11:57;;;;;;;14.02;6.65;;;11.20;99.90;;;;;;5033897;28;20048;-69
2023/06/06 01:14:26;;;;;;;10.93;6.60;;;10.90;99.90;;;;;;5033228;28;20048;-69
2023/06/06 01:16:57;;;;;;;15.50;7.40;;;11.00;99.90;;;;;;5033922;28;20524;-69
2023/06/06 01:19:29;;;;;;;15.07;7.10;;;10.90;99.90;;;;;;5033832;28;20060;-69
2023/06/06 01:21:56;;;;;;;15.35;7.00;;;10.90;99.90;;;;;;5033667;28;20443;-69
2023/06/06 01:24:24;;;;;;;11.48;6.93;;;10.90;99.90;;;;;;5033196;28;20083;-68
2023/06/06 01:26:50;;;;;;;19.10;7.63;;;11.00;99.90;;;;;;5033622;28;20045;-69
2023/06/06 01:29:15;;;;;;;17.52;7.35;;;10.90;99.90;;;;;;5033180;28;20163;-69
2023/06/06 01:31:46;;;;;;;18.55;9.07;;;10.80;99.90;;;;;;5033734;28;20080;-69
2023/06/06 01:34:27;;;;;;;11.73;7.15;;;10.90;99.90;;;;;;5033398;28;20056;-69
2023/06/06 01:37:14;;;;;;;13.05;7.40;;;10.80;99.90;;;;;;5033436;28;20508;-69
2023/06/06 01:39:43;;;;;;;13.35;7.53;;;10.90;99.90;;;;;;5016952;28;20072;-69
2023/06/06 01:42:10;;;;;;;13.65;6.82;;;10.80;99.90;;;;;;5035462;28;20045;-69
2023/06/06 01:44:37;;;;;;;14.02;8.52;;;10.90;99.90;;;;;;5037062;28;20048;-69
2023/06/06 01:47:03;;;;;;;16.58;7.78;;;10.90;99.90;;;;;;5033543;28;20116;-69
2023/06/06 01:49:29;;;;;;;12.50;7.03;;;10.80;99.90;;;;;;5033740;28;20141;-68
2023/06/06 01:51:55;;;;;;;12.90;7.90;;;;;;;;;;5033240;28;20179;-69
2023/06/06 01:54:21;;;;;;;13.73;7.22;;;10.90;99.90;;;;;;5032866;28;20052;-68
2023/06/06 01:56:47;;;;;;;12.57;7.25;;;;;;;;;;5020781;28;20412;-69
2023/06/06 01:59:13;;;;;;;13.18;7.22;;;10.80;99.90;;;;;;5037131;28;20121;-68
2023/06/06 02:01:39;;;;;;;13.07;7.68;;;;;;;;;;5037273;28;20535;-69
2023/06/06 02:04:04;;;;;;;13.38;7.57;;;10.90;99.90;;;;;;5036633;28;20045;-68
2023/06/06 02:06:30;;;;;;;14.40;7.05;;;10.90;99.90;;;;;;5037321;28;20184;-69
2023/06/06 02:08:55;;;;;;;15.82;7.60;;;11.00;99.90;;;;;;5036772;28;20519;-69
2023/06/06 02:11:23;;;;;;;14.27;7.28;;;10.90;99.90;;;;;;5054931;28;20037;-69
2023/06/06 02:13:50;;;;;;;15.30;7.20;;;10.90;99.90;;;;;;5054822;28;20041;-68
2023/06/06 02:16:17;;;;;;;13.05;7.57;;;10.80;99.90;;;;;;5036480;28;20045;-69
2023/06/06 02:18:44;;;;;;;12.95;6.80;;;10.90;99.90;;;;;;5036872;28;20049;-69
2023/06/06 02:21:11;;;;;;;12.45;7.35;;;11.10;99.90;;;;;;5037003;28;20381;-69
2023/06/06 02:23:37;;;;;;;17.48;8.63;;;10.80;99.90;;;;;;5036614;28;20505;-69
2023/06/06 02:26:03;;;;;;;19.38;7.22;;;11.10;99.90;;;;;;5036344;28;20044;-69
2023/06/06 02:28:30;;;;;;;14.52;7.93;;;11.00;99.90;;;;;;5036505;28;20069;-69
2023/06/06 02:30:56;;;;;;;14.05;7.03;;;11.10;99.90;;;;;;5054676;28;20037;-69
2023/06/06 02:33:22;;;;;;;13.25;7.68;;;11.00;99.90;;;;;;5036891;28;20040;-69
2023/06/06 02:35:49;;;;;;;12.55;7.20;;;11.00;99.90;;;;;;5036088;28;20052;-69
2023/06/06 02:38:14;;;;;;;15.02;7.88;;;11.00;99.90;;;;;;5036268;28;20045;-69
2023/06/06 02:40:40;;;;;;;15.55;9.02;;;;;;;;;;5036605;28;20036;-69
2023/06/06 02:43:06;;;;;;;13.93;7.72;;;11.10;99.90;;;;;;5036378;28;20048;-69
2023/06/06 02:45:31;;;;;;;19.67;7.82;;;11.10;99.90;;;;;;5036036;28;20037;-68
2023/06/06 02:47:57;;;;;;;16.48;7.75;;;11.00;99.90;;;;;;5036887;28;20412;-69
2023/06/06 02:50:24;;;;;;;14.15;8.13;;;;;;;;;;5036641;28;20032;-69
2023/06/06 02:52:51;;;;;;;16.60;7.93;;;11.00;99.90;;;;;;5036242;28;20101;-69
2023/06/06 02:55:17;;;;;;;15.25;7.10;;;;;;;;;;5019383;28;20045;-69
2023/06/06 02:57:42;;;;;;;16.73;8.20;;;10.80;99.90;;;;;;5036189;28;20405;-68
2023/06/06 03:00:09;;;;;;;15.18;7.95;;;10.90;99.90;;;;;;5036160;28;20047;-69
2023/06/06 03:02:35;;;;;;;16.38;7.90;;;10.80;99.90;;;;;;5053906;28;20082;-68
2023/06/06 03:05:02;;;;;;;13.68;7.82;;;10.80;99.90;;;;;;5035573;28;20045;-69
2023/06/06 03:07:28;;;;;;;18.10;8.68;;;;;;;;;;5034686;28;20106;-69
2023/06/06 03:09:54;;;;;;;20.45;8.55;;;;;;;;;;5035990;28;20033;-69
2023/06/06 03:12:20;;;;;;;12.85;7.32;;;;;;;;;;5035833;28;20043;-68
2023/06/06 03:14:46;;;;;;;13.00;8.27;;;;;;;;;;5035031;28;20044;-69
2023/06/06 03:17:12;;;;;;;17.00;8.10;;;;;;;;;;5035069;28;20098;-68
2023/06/06 03:19:38;;;;;;;15.70;8.15;;;;;;;;;;5035956;28;20040;-69
2023/06/06 03:22:05;;;;;;;15.77;8.40;;;11.00;99.90;;;;;;5035741;28;20059;-69
2023/06/06 03:24:33;;;;;;;14.90;7.47;;;10.80;99.90;;;;;;5018631;28;20041;-69
2023/06/06 03:26:59;;;;;;;15.95;8.23;;;;;;;;;;5019068;28;20116;-69
2023/06/06 03:29:25;;;;;;;12.55;8.55;;;10.80;99.90;;;;;;5035420;28;20041;-69
2023/06/06 03:31:50;;;;;;;16.92;8.30;;;10.90;99.90;;;;;;5040062;28;20072;-69
2023/06/06 03:34:16;;;;;;;16.95;8.20;;;11.00;99.90;;;;;;5035426;28;20045;-68
2023/06/06 03:36:42;;;;;;;19.88;8.55;;;10.90;99.90;;;;;;5053491;28;20522;-69
2023/06/06 03:39:07;;;;;;;12.48;8.32;;;;;;;;;;5035416;28;20044;-69
2023/06/06 03:41:33;;;;;;;12.93;8.18;;;;;;;;;;5035388;28;20072;-69
2023/06/06 03:44:02;;;;;;;15.57;7.85;;;11.00;99.90;;;;;;5034958;28;20131;-68
2023/06/06 03:46:29;;;;;;;21.60;8.65;;;;;;;;;;5035224;28;20175;-69
2023/06/06 03:48:55;;;;;;;17.02;8.52;;;11.00;99.90;;;;;;5052912;28;20068;-69
2023/06/06 03:51:20;;;;;;;20.42;8.35;;;11.10;99.90;;;;;;5053208;28;20456;-69
2023/06/06 03:53:46;;;;;;;16.42;8.43;;;11.10;99.90;;;;;;5035342;28;20103;-69
2023/06/06 03:56:12;;;;;;;17.75;7.88;;;11.10;99.90;;;;;;5034880;28;20136;-69
2023/06/06 03:58:37;;;;;;;14.98;7.97;;;11.00;99.90;;;;;;5035062;28;20052;-69
2023/06/06 04:01:03;;;;;;;18.50;9.13;;;11.10;99.90;;;;;;5035384;28;20095;-69
2023/06/06 04:03:36;;;;;;;15.48;8.02;;;;;;;;;;5034687;28;20055;-68
2023/06/06 04:06:04;;;;;;;21.70;9.70;;;11.10;99.90;;;;;;5034356;28;20522;-69
2023/06/06 04:08:31;;;;;;;17.75;9.18;;;11.10;99.90;;;;;;5053009;28;20116;-69
2023/06/06 04:10:57;;;;;;;16.23;8.40;;;;;;;;;;5035127;28;20397;-69
2023/06/06 04:13:23;;;;;;;16.75;9.18;;;;;;;;;;5034644;28;20055;-69
2023/06/06 04:15:49;;;;;;;16.15;9.15;;;11.10;99.90;;;;;;5034351;28;20132;-69
2023/06/06 04:18:15;;;;;;;14.82;8.10;;;;;;;;;;5034323;28;20040;-69
2023/06/06 04:20:43;;;;;;;20.88;8.27;;;11.30;99.90;;;;;;5034671;28;20080;-69
2023/06/06 04:23:09;;;;;;;13.77;8.15;;;11.30;99.90;;;;;;5034485;28;20037;-69
2023/06/06 04:25:34;;;;;;;14.27;7.78;;;11.50;99.90;;;;;;5034075;28;20182;-69
2023/06/06 04:28:00;;;;;;;16.40;8.85;;;11.30;99.90;;;;;;5017898;28;20052;-69
2023/06/06 04:30:29;;;;;;;15.60;8.18;;;;;;;;;;5034070;28;20043;-69
2023/06/06 04:32:55;;;;;;;20.90;9.10;;;11.50;99.90;;;;;;5032842;28;20052;-69
2023/06/06 04:35:20;;;;;;;15.48;8.00;;;11.40;99.90;;;;;;5050462;28;20584;-68
2023/06/06 04:37:53;;;;;;;12.93;7.95;;;11.50;99.90;;;;;;5051158;28;20171;-69
2023/06/06 04:40:21;;;;;;;18.90;8.65;;;;;;;;;;5032793;28;20052;-69
2023/06/06 04:42:47;;;;;;;20.65;8.95;;;;;;;;;;5050791;28;20041;-69
2023/06/06 04:45:15;;;;;;;17.05;8.00;;;;;;;;;;5032257;28;20055;-69
2023/06/06 04:47:43;;;;;;;16.30;8.13;;;11.90;99.90;;;;;;5032153;28;20051;-69
2023/06/06 04:50:11;;;;;;;18.88;8.18;;;;;;;;;;5032671;28;20136;-68
2023/06/06 04:52:37;;;;;;;19.83;8.90;;;;;;;;;;5016331;28;20055;-69
2023/06/06 04:55:04;;;;;;;17.75;8.20;;;12.00;99.90;;;;;;5015342;28;20128;-69
2023/06/06 04:57:30;;;;;;;16.67;7.07;;;12.20;99.90;;;;;;5031931;28;20037;-69
2023/06/06 04:59:56;;;;;;;14.05;7.95;;;;;;;;;;5032162;28;20132;-69
2023/06/06 05:02:24;;;;;;;14.98;8.15;;;12.20;99.90;;;;;;5032085;28;20044;-68
2023/06/06 05:04:53;;;;;;;16.80;7.88;;;12.30;99.90;;;;;;5049026;28;20144;-68
2023/06/06 05:07:23;;;;;;;16.73;7.90;;;12.30;99.90;;;;;;5048990;28;20128;-69
2023/06/06 05:09:52;;;;;;;18.05;7.68;;;12.20;99.90;;;;;;5032425;28;20037;-68
2023/06/06 05:12:18;;;;;;;21.33;7.68;;;;;;;;;;5049927;28;20072;-68
2023/06/06 05:14:44;;;;;;;14.95;7.75;;;12.50;99.90;;;;;;5032098;28;20459;-69
2023/06/06 05:17:10;;;;;;;18.60;7.35;;;;;;;;;;5049906;28;20052;-69
2023/06/06 05:19:36;;;;;;;17.13;7.50;;;;;;;;;;5034933;28;20087;-69
2023/06/06 05:22:03;;;;;;;15.38;7.15;;;;;;;;;;5033377;28;20506;-69
2023/06/06 05:24:28;;;;;;;18.10;7.95;;;;;;;;;;5031915;28;20037;-68
2023/06/06 05:26:55;;;;;;;13.93;6.82;;;;;;;;;;5032132;28;20044;-69
2023/06/06 05:29:24;;;;;;;16.25;6.40;;;;;;;;;;5016039;28;20512;-69
2023/06/06 05:31:50;;;;;;;18.80;6.68;;;;;;;;;;5038794;28;20048;-70
2023/06/06 05:34:16;;;;;;;16.75;7.30;;;12.90;99.90;;;;;;5039183;28;20587;-69
2023/06/06 05:36:42;;;;;;;12.27;5.82;;;;;;;;;;5039229;28;20045;-69
2023/06/06 05:39:08;;;;;;;13.77;6.22;;;;;;;;;;5021505;28;20043;-69
2023/06/06 05:41:34;;;;;;;14.55;7.07;;;;;;;;;;5014292;28;20045;-69
2023/06/06 05:44:00;;;;;;;13.10;6.07;;;13.30;99.90;;;;;;5041824;28;20048;-70
2023/06/06 05:46:26;;;;;;;16.30;6.65;;;13.40;99.90;;;;;;5020051;28;20044;-69
2023/06/06 05:48:52;;;;;;;12.00;5.90;;;;;;;;;;5008185;28;20036;-69
2023/06/06 05:51:18;;;;;;;13.85;6.22;;;;;;;;;;5015124;28;20046;-69
2023/06/06 05:53:44;;;;;;;11.88;5.28;;;;;;;;;;5031228;28;20617;-70
2023/06/06 05:56:11;;;;;;;17.75;6.13;;;13.50;99.90;;;;;;5024726;28;20786;-68
2023/06/06 05:58:37;;;;;;;16.63;5.47;;;;;;;;;;5043103;28;20073;-70
2023/06/06 06:01:03;;;;;;;10.98;5.55;;;;;;;;;;5042341;28;20534;-69
2023/06/06 06:03:29;;;;;;;13.00;5.45;;;;;;;;;;5013526;28;20123;-69
2023/06/06 06:06:02;;;;;;;13.98;5.18;;;13.80;99.90;;;;;;5028221;28;20045;-69
2023/06/06 06:08:28;;;;;;;;;;;13.70;99.90;;;;;;5043150;28;20120;-70
2023/06/06 06:10:54;;;;;;;15.48;5.45;;;13.90;99.90;;;;;;5027157;28;20016;-68
2023/06/06 06:13:20;;;;;;;12.35;4.90;;;;;;;;;;5024708;28;20042;-69
2023/06/06 06:15:46;;;;;;;11.57;5.72;;;;;;;;;;5041233;28;20055;-69
2023/06/06 06:18:12;;;;;;;10.05;5.68;;;;;;;;;;5020278;28;20043;-69
2023/06/06 06:20:38;;;;;;;13.13;5.30;;;14.10;99.90;;;;;;5022251;28;20409;-69
2023/06/06 06:23:03;;;;;;;14.27;5.20;;;14.20;99.90;;;;;;5026202;28;20025;-69
2023/06/06 06:25:29;;;;;;;14.02;5.32;;;;;;;;;;5024931;28;20041;-69
2023/06/06 06:27:56;;;;;;;12.85;5.55;;;14.20;99.90;;;;;;5026264;28;20073;-68
2023/06/06 06:30:22;;;;;;;13.50;5.38;;;;;;;;;;5026816;28;20037;-68
2023/06/06 06:32:48;;;;;;;7.70;4.00;;;;;;;;;;5021699;28;20052;-70
2023/06/06 06:35:14;;;;;;;10.70;4.40;;;;;;;;;;5021118;28;20056;-69
2023/06/06 06:37:40;;;;;;;8.80;4.53;;;;;;;;;;5026406;28;20050;-70
2023/06/06 06:40:10;;;;;;;12.25;4.50;;;14.40;99.90;;;;;;5037997;28;20045;-68
2023/06/06 06:42:43;;;;;;;8.82;5.53;;;14.20;99.90;;;;;;5027355;28;20377;-70
2023/06/06 06:45:13;;;;;;;12.65;4.95;;;14.90;99.90;;;;;;5014019;28;20049;-69
2023/06/06 06:47:40;;;;;;;10.98;5.50;;;14.80;99.90;;;;;;5029042;28;20516;-68
2023/06/06 06:50:06;;;;;;;9.95;4.82;;;14.80;99.90;;;;;;5019838;28;20045;-69
2023/06/06 06:52:36;;;;;;;10.15;4.47;;;14.70;99.90;;;;;;5020557;28;20033;-69
2023/06/06 06:55:04;;;;;;;12.13;4.60;;;14.60;99.90;;;;;;5016110;28;20804;-69
2023/06/06 06:57:30;;;;;;;10.15;3.90;;;;;;;;;;5019742;28;20099;-68
2023/06/06 06:59:56;;;;;;;15.35;4.65;;;15.20;99.90;;;;;;5032924;28;20041;-68
2023/06/06 07:02:28;;;;;;;6.63;3.42;;;15.00;99.90;;;;;;5035742;28;20513;-69
2023/06/06 07:04:57;;;;;;;10.87;3.67;;;15.20;99.90;;;;;;4998240;28;20045;-68
2023/06/06 07:07:23;;;;;;;8.40;3.90;;;15.50;99.90;;;;;;5022867;28;20037;-67
2023/06/06 07:09:49;;;;;;;10.02;4.43;;;;;;;;;;5025670;28;20083;-67
2023/06/06 07:12:15;;;;;;;10.15;5.05;;;;;;;;;;5039194;28;20037;-66
2023/06/06 07:14:41;;;;;;;10.18;3.72;;;15.30;99.90;;;;;;5040667;28;20066;-68
2023/06/06 07:17:07;;;;;;;13.48;3.75;;;;;;;;;;5016898;28;20045;-68
2023/06/06 07:19:36;;;;;;;9.60;3.58;;;15.70;99.90;;;;;;5022181;28;20420;-68
2023/06/06 07:22:03;;;;;;;9.95;3.80;;;15.60;99.90;;;;;;5035027;28;20497;-68
2023/06/06 07:24:29;;;;;;;8.00;3.70;;;15.80;99.90;;;;;;5019767;28;20647;-68
2023/06/06 07:26:56;;;;;;;3.90;3.30;;;;;;;;;;5017403;28;20053;-68
2023/06/06 07:29:22;;;;;;;8.23;4.00;;;;;;;;;;5035722;28;20045;-68
2023/06/06 07:31:49;;;;;;;8.02;4.15;;;15.80;99.90;;;;;;5004237;28;20044;-68
2023/06/06 07:34:15;;;;;;;10.20;3.53;;;;;;;;;;5015184;28;20041;-68
2023/06/06 07:36:41;;;;;;;10.80;3.95;;;;;;;;;;5040254;28;20053;-68
2023/06/06 07:39:08;;;;;;;8.10;3.63;;;;;;;;;;5025495;28;20132;-69
2023/06/06 07:41:34;;;;;;;11.98;4.20;;;15.90;99.90;;;;;;5040272;28;20552;-68
2023/06/06 07:44:00;;;;;;;6.32;3.50;;;15.80;99.90;;;;;;5003001;28;20052;-68
2023/06/06 07:46:26;;;;;;;11.15;3.90;;;16.20;99.90;;;;;;5018287;28;20045;-69
2023/06/06 07:48:52;;;;;;;9.35;4.10;;;16.20;99.90;;;;;;5021195;28;20036;-69
2023/06/06 07:51:18;;;;;;;10.48;3.55;;;;;;;;;;5003004;28;20060;-69
2023/06/06 07:53:44;;;;;;;15.32;5.30;;;;;;;;;;5033579;28;20064;-69
2023/06/06 07:56:13;;;;;;;9.07;3.60;;;16.30;99.90;;;;;;5037471;28;20049;-68
2023/06/06 07:58:40;;;;;;;9.80;4.00;;;16.60;99.90;;;;;;5031222;28;20065;-67
2023/06/06 08:01:09;;;;;;;11.68;4.93;;;16.70;99.90;;;;;;5037637;28;20045;-68
2023/06/06 08:03:34;;;;;;;7.47;4.32;;;16.80;99.90;;;;;;5016659;28;20561;-68
2023/06/06 08:06:00;;;;;;;12.52;5.57;;;16.60;99.90;;;;;;5043504;28;20036;-69
2023/06/06 08:08:28;;;;;;;8.05;3.90;;;16.90;99.90;;;;;;5016495;28;20045;-68
2023/06/06 08:10:53;;;;;;;14.48;4.40;;;16.90;99.90;;;;;;5050102;28;20033;-68
2023/06/06 08:13:20;;;;;;;9.60;4.15;;;16.90;99.90;;;;;;5033899;28;20075;-68
2023/06/06 08:15:46;;;;;;;16.10;3.75;;;17.00;99.90;;;;;;5046624;28;20082;-69
2023/06/06 08:18:15;;;;;;;9.68;4.60;;;16.90;99.90;;;;;;5051859;28;20051;-68
2023/06/06 08:20:41;;;;;;;8.50;3.92;;;;;;;;;;5034504;28;20036;-69
2023/06/06 08:23:07;;;;;;;11.05;3.95;;;16.80;99.90;;;;;;5034235;28;20462;-69
2023/06/06 08:25:37;;;;;;;7.30;3.80;;;16.90;99.90;;;;;;5050709;28;20045;-67
2023/06/06 08:28:03;;;;;;;5.90;3.50;;;16.80;99.90;;;;;;5032352;28;20055;-68
2023/06/06 08:30:28;;;;;;;9.73;3.42;;;17.00;99.90;;;;;;5014052;28;20033;-69
2023/06/06 08:32:54;;;;;;;9.13;4.47;;;17.10;99.90;;;;;;5032320;28;20086;-68
2023/06/06 08:35:20;;;;;;;8.00;3.97;;;;;;;;;;5033811;28;20068;-69
2023/06/06 08:37:47;;;;;;;7.00;3.53;;;17.10;99.90;;;;;;5034629;28;20045;-68
2023/06/06 08:40:13;;;;;;;7.15;3.75;;;16.80;99.90;;;;;;5033983;28;20532;-68
2023/06/06 08:42:44;;;;;;;8.40;3.50;;;17.10;99.90;;;;;;5029870;28;20041;-68
2023/06/06 08:45:10;;;;;;;9.60;3.63;;;16.70;99.90;;;;;;5027694;28;20040;-68
2023/06/06 08:47:36;;;;;;;9.27;4.20;;;16.80;99.90;;;;;;5016195;28;20116;-68
2023/06/06 08:50:04;;;;;;;6.47;3.80;;;16.70;99.90;;;;;;5050636;28;20037;-69
2023/06/06 08:52:35;;;;;;;9.60;4.13;;;17.10;99.90;;;;;;5012278;28;20048;-69
2023/06/06 08:55:03;;;;;;;11.95;4.70;;;17.40;99.90;;;;;;5012619;28;20049;-69
2023/06/06 08:57:29;;;;;;;9.70;4.05;;;17.50;99.90;;;;;;5038761;28;20029;-69
2023/06/06 08:59:55;;;;;;;9.85;3.97;;;17.60;99.90;;;;;;5022593;28;20144;-69
2023/06/06 09:02:22;;;;;;;7.18;3.85;;;17.80;99.90;;;;;;5030927;28;20047;-69
2023/06/06 09:04:48;;;;;;;9.43;4.47;;;17.90;99.90;;;;;;5012312;28;20369;-69
2023/06/06 09:07:15;;;;;;;6.78;3.75;;;17.60;99.90;;;;;;5030238;28;20033;-68
2023/06/06 09:09:43;;;;;;;8.00;4.07;;;17.50;99.90;;;;;;5030530;28;20475;-67
2023/06/06 09:12:09;;;;;;;11.68;5.00;;;17.90;99.90;;;;;;5050270;28;20047;-68
2023/06/06 09:14:35;;;;;;;13.20;4.78;;;17.70;99.90;;;;;;5029920;28;20532;-69
2023/06/06 09:17:01;;;;;;;12.02;4.70;;;17.90;99.90;;;;;;5031437;28;20037;-68
2023/06/06 09:19:27;;;;;;;7.40;4.50;;;17.50;99.90;;;;;;5032559;28;20492;-68
2023/06/06 09:21:56;;;;;;;13.48;5.15;;;17.60;99.90;;;;;;5032755;28;20079;-72
2023/06/06 09:24:22;;;;;;;11.18;4.28;;;17.70;99.90;;;;;;5016228;28;20037;-71
2023/06/06 09:26:47;;;;;;;9.75;5.22;;;17.70;99.90;;;;;;5032160;28;20036;-72
2023/06/06 09:29:13;;;;;;;13.27;6.57;;;17.50;99.90;;;;;;5015871;28;20033;-71
2023/06/06 09:31:40;;;;;;;14.45;5.20;;;;;;;;;;5032784;28;20064;-72
2023/06/06 09:34:08;;;;;;;10.80;4.78;;;17.90;99.90;;;;;;5012330;28;20128;-72
2023/06/06 09:36:33;;;;;;;11.93;5.07;;;17.90;99.90;;;;;;5032619;28;20090;-72
2023/06/06 09:39:13;;;;;;;11.30;5.60;;;18.00;99.90;;;;;;5032509;28;20037;-72
2023/06/06 09:41:46;;;;;;;12.40;5.80;;;18.30;99.90;;;;;;5013372;28;20084;-71
2023/06/06 09:44:19;;;;;;;;;;;18.20;99.90;;;;;;5016761;28;20083;-72
2023/06/06 09:46:45;;;;;;;14.60;5.27;;;18.20;99.90;;;;;;5032924;28;19917;-71
2023/06/06 09:49:12;;;;;;;10.65;4.95;;;18.30;99.90;;;;;;5032447;28;20045;-72
2023/06/06 09:51:42;;;;;;;13.80;5.90;;;17.80;99.90;;;;;;5008709;28;20033;-70
2023/06/06 09:54:09;;;;;;;10.25;5.28;;;18.30;99.90;;;;;;5029286;28;20504;-70
2023/06/06 09:56:39;;;;;;;9.40;5.60;;;17.50;99.90;;;;;;5015707;28;20357;-69
2023/06/06 09:59:06;;;;;;;11.38;5.32;;;17.90;99.90;;;;;;5014267;28;20162;-70
2023/06/06 10:01:33;;;;;;;9.43;4.97;;;18.00;99.90;;;;;;5029579;28;20167;-70
2023/06/06 10:04:00;;;;;;;9.40;4.32;;;18.70;99.90;;;;;;5008187;28;20124;-70
2023/06/06 10:06:33;;;;;;;9.27;4.13;;;18.20;99.90;;;;;;5014077;28;20037;-70
2023/06/06 10:09:05;;;;;;;8.45;5.22;;;17.90;99.90;;;;;;5032617;28;20047;-70
2023/06/06 10:11:33;;;;;;;14.07;5.10;;;18.30;99.90;;;;;;5026757;28;20036;-70
2023/06/06 10:13:59;;;;;;;11.40;4.70;;;18.40;99.90;;;;;;5012655;28;20117;-70
2023/06/06 10:16:29;;;;;;;8.35;5.07;;;17.70;99.90;;;;;;5021436;28;20037;-70
2023/06/06 10:18:55;;;;;;;15.07;5.32;;;17.90;99.90;;;;;;5034280;28;20079;-70
2023/06/06 10:21:21;;;;;;;8.90;4.55;;;18.20;99.90;;;;;;5015672;28;20088;-70
2023/06/06 10:23:47;;;;;;;14.60;5.97;;;17.70;99.90;;;;;;5030351;28;20524;-71
2023/06/06 10:26:27;;;;;;;13.35;5.82;;;17.80;99.90;;;;;;5014384;28;20033;-71
2023/06/06 10:29:06;;;;;;;14.63;5.43;;;18.20;99.90;;;;;;5017377;28;20044;-70
2023/06/06 10:31:58;;;;;;;13.23;6.00;;;18.80;99.90;;;;;;5020620;28;20497;-71
2023/06/06 10:34:28;;;;;;;15.15;6.07;;;18.50;99.90;;;;;;5011880;28;20078;-72
2023/06/06 10:36:56;;;;;;;12.20;5.30;;;18.20;99.90;;;;;;5024720;28;20048;-72
2023/06/06 10:39:28;;;;;;;13.52;6.32;;;18.70;99.90;;;;;;4999659;28;20124;-71
2023/06/06 10:41:59;;;;;;;13.73;6.07;;;18.50;99.90;;;;;;5028540;28;20074;-72
2023/06/06 10:44:37;;;;;;;10.35;5.80;;;18.30;99.90;;;;;;5035793;28;20052;-71
2023/06/06 10:47:21;;;;;;;10.75;6.35;;;18.40;99.90;;;;;;5012191;28;20044;-70
2023/06/06 10:50:11;;;;;;;16.38;6.60;;;18.20;99.90;;;;;;5035096;28;20041;-70
2023/06/06 10:52:43;;;;;;;8.70;5.63;;;18.40;99.90;;;;;;5032902;28;20041;-72
2023/06/06 10:55:40;;;;;;;10.90;5.38;;;18.60;99.90;;;;;;5017767;28;20519;-71
2023/06/06 10:58:14;;;;;;;9.85;5.70;;;18.80;99.90;;;;;;5026760;28;20458;-72
2023/06/06 11:00:40;;;;;;;;;;;18.60;99.90;;;;;;5026751;28;20446;-72
2023/06/06 11:03:07;;;;;;;14.18;7.00;;;18.70;99.90;;;;;;5018930;28;19942;-72
2023/06/06 11:05:33;;;;;;;12.18;6.32;;;19.00;99.90;;;;;;5029939;28;20040;-71
2023/06/06 11:08:01;;;;;;;15.88;6.93;;;18.80;99.90;;;;;;5014762;28;20038;-72
2023/06/06 11:10:26;;;;;;;9.18;6.00;;;18.90;99.90;;;;;;5015136;28;20049;-72
2023/06/06 11:12:54;;;;;;;9.02;5.60;;;18.40;99.90;;;;;;5023077;28;20381;-72
2023/06/06 11:15:28;;;;;;;12.77;6.25;;;18.20;99.90;;;;;;5040222;28;20505;-72
2023/06/06 11:18:05;;;;;;;10.27;6.38;;;18.70;99.90;;;;;;5021739;28;20090;-72
2023/06/06 11:20:40;;;;;;;13.48;6.20;;;18.70;99.90;;;;;;5010327;28;20067;-71
2023/06/06 11:23:10;;;;;;;12.38;6.35;;;18.90;99.90;;;;;;5016395;28;20123;-72
2023/06/06 11:25:36;;;;;;;7.72;5.85;;;19.30;99.90;;;;;;5022318;28;20037;-72
2023/06/06 11:28:06;;;;;;;8.52;5.97;;;19.00;99.90;;;;;;5016126;28;20136;-72
2023/06/06 11:30:35;;;;;;;11.07;6.20;;;18.80;99.90;;;;;;5015311;28;20112;-72
2023/06/06 11:33:11;;;;;;;9.90;6.45;;;18.60;99.90;;;;;;5014720;28;20041;-72
2023/06/06 11:35:39;;;;;;;15.20;5.95;;;18.70;99.90;;;;;;5015256;28;20049;-72
2023/06/06 11:38:05;;;;;;;11.68;5.63;;;18.80;99.90;;;;;;5004044;28;20040;-72
2023/06/06 11:40:30;;;;;;;12.30;6.25;;;18.80;99.90;;;;;;5018703;28;20050;-72
2023/06/06 11:42:58;;;;;;;9.18;5.38;;;18.90;99.90;;;;;;5027803;28;20122;-72
2023/06/06 11:45:24;;;;;;;13.43;5.20;;;19.70;99.90;;;;;;5024838;28;20067;-72
2023/06/06 11:47:51;;;;;;;14.27;5.10;;;19.20;99.90;;;;;;5034589;28;20037;-72
2023/06/06 11:50:27;;;;;;;11.13;5.55;;;21.10;99.90;;;;;;5017783;28;20037;-72
2023/06/06 11:52:52;;;;;;;8.85;5.00;;;20.20;99.90;;;;;;5017943;28;20037;-72
2023/06/06 11:55:18;;;;;;;13.98;5.20;;;19.60;99.90;;;;;;5033756;28;20499;-72
2023/06/06 11:57:44;;;;;;;14.00;5.80;;;19.50;99.90;;;;;;5033938;28;20089;-72
2023/06/06 12:00:17;;;;;;;9.48;5.53;;;19.40;99.90;;;;;;5034424;28;20404;-72
2023/06/06 12:02:51;;;;;;;11.55;6.30;;;19.50;99.90;;;;;;5017881;28;20045;-72
2023/06/06 12:05:26;;;;;;;14.60;5.80;;;20.10;99.90;;;;;;5033718;28;20509;-72
2023/06/06 12:07:57;;;;;;;22.35;7.22;;;19.50;99.90;;;;;;5033676;28;20082;-72
2023/06/06 12:10:25;;;;;;;13.27;7.47;;;20.00;99.90;;;;;;5033853;28;20140;-72
2023/06/06 12:12:51;;;;;;;12.30;6.47;;;19.20;99.90;;;;;;5031459;28;20029;-71
2023/06/06 12:15:17;;;;;;;14.68;7.22;;;19.30;99.90;;;;;;5023049;28;20051;-72
2023/06/06 12:17:42;;;;;;;13.52;6.20;;;20.50;99.90;;;;;;5030362;28;20497;-73
2023/06/06 12:20:10;;;;;;;11.90;6.45;;;19.50;99.90;;;;;;5023782;28;20043;-72
2023/06/06 12:22:36;;;;;;;13.27;5.88;;;19.80;99.90;;;;;;5034362;28;20055;-72
2023/06/06 12:25:03;;;;;;;14.10;6.60;;;20.10;99.90;;;;;;5032115;28;20496;-71
2023/06/06 12:27:33;;;;;;;14.60;6.47;;;19.90;99.90;;;;;;5031420;28;20041;-70
2023/06/06 12:30:00;;;;;;;13.15;6.35;;;20.20;99.90;;;;;;5033741;28;20047;-70
2023/06/06 12:32:29;;;;;;;12.00;6.55;;;19.90;99.90;;;;;;5017224;28;20059;-69
2023/06/06 12:37:39;;;;;;;13.95;6.13;;;20.30;99.90;;;;;;5029538;28;20575;-69
2023/06/06 12:40:20;;;;;;;11.05;6.03;;;19.60;99.90;;;;;;5023909;28;20500;-72
2023/06/06 12:42:56;;;;;;;12.57;5.43;;;19.10;99.90;;;;;;5031950;28;20076;-71
2023/06/06 12:45:24;;;;;;;9.82;4.78;;;19.50;99.90;;;;;;5012523;28;20045;-71
2023/06/06 12:47:51;;;;;;;8.18;5.72;;;19.70;99.90;;;;;;5032101;28;20481;-71
2023/06/06 12:50:17;;;;;;;9.30;5.35;;;19.40;99.90;;;;;;5013822;28;20079;-71
2023/06/06 12:52:43;;;;;;;10.75;5.40;;;19.70;99.90;;;;;;5030001;28;20037;-71
2023/06/06 12:55:08;;;;;;;10.05;4.95;;;19.40;99.90;;;;;;5033186;28;20573;-71
2023/06/06 12:57:34;;;;;;;9.45;5.18;;;18.80;99.90;;;;;;5029661;28;20480;-70
2023/06/06 13:00:00;;;;;;;11.18;4.63;;;20.00;99.90;;;;;;5025227;28;20041;-71
2023/06/06 13:02:25;;;;;;;11.55;5.03;;;19.70;99.90;;;;;;5033140;28;20052;-71
2023/06/06 13:04:51;;;;;;;12.90;5.82;;;19.60;99.90;;;;;;5032040;28;20408;-71
2023/06/06 13:07:17;;;;;;;9.48;4.85;;;20.20;99.90;;;;;;5032156;28;20562;-71